Time;durP1;ratioP1;P1;durP2;ratioP2;P2;SDS_P1;SDS_P2;PMS_P1;PMS_P2;Temp;Humidity;BMP_temperature;BMP_pressure;BME280_temperature;BME280_humidity;BME280_pressure;Samples;Min_cycle;Max_cycle;Signal;HPM_P1;HPM_P2
2022/11/11 00:00:37;;;;;;;73.25;39.05;;;11.80;99.90;;;;;;6277223;22;19991;-85
2022/11/11 00:03:03;;;;;;;69.82;38.25;;;11.80;99.90;;;;;;6278504;22;20002;-87
2022/11/11 00:05:32;;;;;;;65.50;35.25;;;11.80;99.90;;;;;;6277320;22;20290;-87
2022/11/11 00:08:00;;;;;;;60.45;34.97;;;11.80;99.90;;;;;;6277143;22;20003;-87
2022/11/11 00:10:29;;;;;;;62.20;34.17;;;11.80;99.90;;;;;;6278625;22;19995;-87
2022/11/11 00:13:02;;;;;;;66.20;35.80;;;11.80;99.90;;;;;;6277132;22;20046;-85
2022/11/11 00:15:28;;;;;;;68.72;37.05;;;11.80;99.90;;;;;;6277264;22;20054;-86
2022/11/11 00:26:11;;;;;;;60.00;31.88;;;11.80;99.90;;;;;;6278648;22;20054;-87
2022/11/11 00:28:37;;;;;;;66.22;35.50;;;11.80;99.90;;;;;;6276484;22;20012;-86
2022/11/11 00:31:05;;;;;;;59.63;33.03;;;11.80;99.90;;;;;;6277895;22;19998;-86
2022/11/11 00:33:31;;;;;;;61.33;33.65;;;11.80;99.90;;;;;;6276793;22;20006;-87
2022/11/11 00:35:57;;;;;;;62.25;34.30;;;11.80;99.90;;;;;;6302273;22;20000;-86
2022/11/11 00:41:07;;;;;;;57.35;31.48;;;11.70;99.90;;;;;;6277780;22;20434;-87
2022/11/11 00:43:32;;;;;;;64.57;33.72;;;11.70;99.90;;;;;;6276776;22;20023;-86
2022/11/11 00:51:27;;;;;;;62.65;32.88;;;11.70;99.90;;;;;;6277555;22;20045;-86
2022/11/11 00:53:53;;;;;;;59.47;31.27;;;11.70;99.90;;;;;;6277699;22;20296;-87
2022/11/11 00:56:20;;;;;;;57.53;32.05;;;11.70;99.90;;;;;;6277576;22;19999;-86
2022/11/11 00:58:46;;;;;;;60.88;33.70;;;11.70;99.90;;;;;;6277746;22;20015;-87
2022/11/11 01:01:12;;;;;;;74.45;38.58;;;11.70;99.90;;;;;;6276395;22;19995;-86
2022/11/11 01:03:38;;;;;;;67.65;36.70;;;11.70;99.90;;;;;;6275567;22;19992;-86
2022/11/11 01:06:04;;;;;;;70.10;38.00;;;11.70;99.90;;;;;;6276210;22;19999;-86
2022/11/11 01:08:31;;;;;;;67.25;37.40;;;11.70;99.90;;;;;;6276445;22;20007;-87
2022/11/11 01:10:57;;;;;;;77.45;45.80;;;11.60;99.90;;;;;;6277393;22;19995;-86
2022/11/11 01:13:26;;;;;;;71.45;42.85;;;11.70;99.90;;;;;;6302022;22;19992;-86
2022/11/11 01:15:57;;;;;;;66.50;31.75;;;11.70;99.90;;;;;;6276413;22;20006;-86
2022/11/11 01:18:25;;;;;;;59.70;33.13;;;11.60;99.90;;;;;;6276469;22;20007;-87
2022/11/11 01:21:20;;;;;;;56.22;30.30;;;11.60;99.90;;;;;;6276136;22;20224;-85
2022/11/11 01:23:48;;;;;;;59.55;31.67;;;11.60;99.90;;;;;;6299127;22;20035;-87
2022/11/11 01:26:20;;;;;;;57.28;31.98;;;11.60;99.90;;;;;;6277927;22;19998;-87
2022/11/11 01:28:55;;;;;;;56.15;31.15;;;11.50;99.90;;;;;;6277594;22;20074;-87
2022/11/11 01:31:23;;;;;;;53.47;29.27;;;11.50;99.90;;;;;;6276171;22;20018;-86
2022/11/11 01:33:49;;;;;;;59.60;29.58;;;11.50;99.90;;;;;;6277226;22;20042;-86
2022/11/11 01:36:18;;;;;;;58.08;30.75;;;11.40;99.90;;;;;;6276047;22;20093;-86
2022/11/11 01:38:48;;;;;;;58.00;30.58;;;11.40;99.90;;;;;;6275588;22;20102;-87
2022/11/11 01:41:32;;;;;;;60.35;30.08;;;11.40;99.90;;;;;;6275809;22;20002;-88
2022/11/11 01:44:10;;;;;;;73.03;39.53;;;11.40;99.90;;;;;;6276156;22;20074;-88
2022/11/11 01:46:54;;;;;;;54.40;29.95;;;11.40;99.90;;;;;;6276096;22;19999;-88
2022/11/11 01:49:38;;;;;;;58.00;29.75;;;11.40;99.90;;;;;;6276078;22;19999;-87
2022/11/11 01:52:15;;;;;;;60.97;31.42;;;11.30;99.90;;;;;;6275931;22;20400;-88
2022/11/11 01:54:53;;;;;;;58.10;29.17;;;11.40;99.90;;;;;;6275866;22;20412;-87
2022/11/11 01:57:39;;;;;;;59.75;30.05;;;11.30;99.90;;;;;;6277592;22;20034;-88
2022/11/11 02:00:14;;;;;;;56.65;30.05;;;11.30;99.90;;;;;;6276005;22;20372;-86
2022/11/11 02:02:43;;;;;;;54.92;30.20;;;11.30;99.90;;;;;;6277650;22;20322;-87
2022/11/11 02:08:10;;;;;;;66.85;34.13;;;11.20;99.90;;;;;;6276847;22;20384;-86
2022/11/11 02:10:39;;;;;;;63.72;33.75;;;11.20;99.90;;;;;;6277364;22;20017;-87
2022/11/11 02:15:55;;;;;;;66.50;34.17;;;11.00;99.90;;;;;;6276873;22;20075;-87
2022/11/11 02:18:21;;;;;;;67.95;35.90;;;10.90;99.90;;;;;;6275737;22;20038;-86
2022/11/11 02:20:47;;;;;;;61.78;34.50;;;10.90;99.90;;;;;;6275738;22;20492;-88
2022/11/11 02:23:32;;;;;;;69.22;35.97;;;10.80;99.90;;;;;;6275497;22;19992;-86
2022/11/11 02:26:01;;;;;;;73.45;37.10;;;10.70;99.90;;;;;;6275663;22;19992;-87
2022/11/11 02:28:27;;;;;;;72.40;38.78;;;10.70;99.90;;;;;;6275128;22;20042;-88
2022/11/11 02:30:53;;;;;;;68.85;38.28;;;10.60;99.90;;;;;;6275564;22;20000;-86
2022/11/11 02:33:19;;;;;;;67.30;36.88;;;10.60;99.90;;;;;;6301440;22;19995;-85
2022/11/11 02:35:58;;;;;;;65.60;34.45;;;10.50;99.90;;;;;;6275663;22;19996;-86
2022/11/11 02:38:25;;;;;;;74.90;36.17;;;10.40;99.90;;;;;;6275745;22;20012;-85
2022/11/11 02:43:35;;;;;;;77.45;39.15;;;10.40;99.90;;;;;;6276949;22;20380;-86
2022/11/11 02:46:04;;;;;;;74.20;38.95;;;10.30;99.90;;;;;;6277824;22;19988;-88
2022/11/11 02:48:30;;;;;;;73.03;37.95;;;10.30;99.90;;;;;;6275713;22;20033;-85
2022/11/11 02:50:56;;;;;;;70.57;37.80;;;10.20;99.90;;;;;;6275924;22;20019;-86
2022/11/11 02:53:22;;;;;;;70.93;36.35;;;10.20;99.90;;;;;;6277180;22;19992;-86
2022/11/11 02:55:48;;;;;;;69.38;36.63;;;10.10;99.90;;;;;;6275589;22;20079;-85
2022/11/11 02:58:15;;;;;;;76.07;36.35;;;10.10;99.90;;;;;;6300988;22;20000;-86
2022/11/11 03:00:41;;;;;;;75.10;36.40;;;10.10;99.90;;;;;;6277099;22;20439;-86
2022/11/11 03:03:08;;;;;;;76.25;35.33;;;10.00;99.90;;;;;;6276695;22;20409;-87
2022/11/11 03:05:34;;;;;;;77.78;36.35;;;10.00;99.90;;;;;;6275383;22;20426;-87
2022/11/11 03:08:00;;;;;;;67.13;35.63;;;10.00;99.90;;;;;;6275329;22;20027;-86
2022/11/11 03:10:26;;;;;;;75.78;36.63;;;9.90;99.90;;;;;;6275598;22;20046;-86
2022/11/11 03:12:51;;;;;;;81.55;38.15;;;9.90;99.90;;;;;;6276803;22;20004;-85
2022/11/11 03:15:17;;;;;;;80.70;39.20;;;9.80;99.90;;;;;;6301202;22;20006;-85
2022/11/11 03:17:43;;;;;;;72.63;37.22;;;9.80;99.90;;;;;;6275000;22;20004;-86
2022/11/11 03:23:07;;;;;;;70.43;37.47;;;9.70;99.90;;;;;;6276553;22;20026;-86
2022/11/11 03:25:40;;;;;;;87.10;39.17;;;9.70;99.90;;;;;;6275251;22;19992;-86
2022/11/11 03:28:10;;;;;;;75.85;40.35;;;9.70;99.90;;;;;;6278309;22;20014;-87
2022/11/11 03:30:38;;;;;;;86.88;40.78;;;9.60;99.90;;;;;;6277347;22;19996;-87
2022/11/11 03:33:04;;;;;;;76.13;39.80;;;9.60;99.90;;;;;;6278399;22;19991;-86
2022/11/11 03:35:30;;;;;;;80.00;38.78;;;9.60;99.90;;;;;;6277402;22;20392;-86
2022/11/11 03:40:44;;;;;;;86.10;38.60;;;9.50;99.90;;;;;;6278538;22;20006;-86
2022/11/11 03:43:11;;;;;;;88.70;39.38;;;9.50;99.90;;;;;;6277062;22;19996;-87
2022/11/11 03:45:37;;;;;;;92.55;41.10;;;9.50;99.90;;;;;;6278616;22;20071;-87
2022/11/11 03:48:04;;;;;;;93.78;42.42;;;9.40;99.90;;;;;;6277056;22;20027;-86
2022/11/11 03:50:30;;;;;;;83.22;39.33;;;9.40;99.90;;;;;;6278683;22;19992;-86
2022/11/11 03:52:56;;;;;;;85.85;38.88;;;9.40;99.90;;;;;;6278567;22;20045;-87
2022/11/11 03:55:22;;;;;;;82.28;38.88;;;9.40;99.90;;;;;;6278829;22;20070;-86
2022/11/11 03:57:48;;;;;;;87.60;38.15;;;9.40;99.90;;;;;;6278941;22;20000;-85
2022/11/11 04:00:20;;;;;;;78.40;37.40;;;9.40;99.90;;;;;;6277272;22;19999;-86
2022/11/11 04:11:13;;;;;;;110.60;44.05;;;9.30;99.90;;;;;;6278305;22;20054;-85
2022/11/11 04:16:30;;;;;;;94.18;44.40;;;9.20;99.90;;;;;;6278357;22;20079;-87
2022/11/11 04:22:00;;;;;;;117.35;48.53;;;9.20;99.90;;;;;;6264508;22;19995;-85
2022/11/11 04:27:13;;;;;;;112.85;47.05;;;9.20;99.90;;;;;;6277848;22;20022;-85
2022/11/11 04:29:39;;;;;;;110.28;45.03;;;9.20;99.90;;;;;;6278307;22;20016;-85
2022/11/11 04:34:58;;;;;;;119.53;49.92;;;9.20;99.90;;;;;;6277976;22;20018;-86
2022/11/11 04:37:25;;;;;;;131.32;50.22;;;9.10;99.90;;;;;;6277221;22;20007;-85
2022/11/11 04:42:38;;;;;;;103.20;42.50;;;9.10;99.90;;;;;;6277923;22;20106;-86
2022/11/11 04:47:54;;;;;;;86.45;42.08;;;9.10;99.90;;;;;;6277785;22;20087;-85
2022/11/11 04:50:20;;;;;;;95.63;44.00;;;9.10;99.90;;;;;;6277784;22;20023;-86
2022/11/11 04:52:46;;;;;;;102.18;45.95;;;9.10;99.90;;;;;;6277900;22;20002;-85
2022/11/11 04:57:57;;;;;;;89.22;45.20;;;9.20;99.90;;;;;;6277454;22;20057;-86
2022/11/11 05:00:23;;;;;;;87.93;44.42;;;9.20;99.90;;;;;;6302403;22;19995;-85
2022/11/11 05:11:06;;;;;;;116.40;52.42;;;9.10;99.90;;;;;;6277750;22;20050;-86
2022/11/11 05:22:03;;;;;;;118.18;57.88;;;9.00;99.90;;;;;;6277447;22;20439;-85
2022/11/11 05:27:13;;;;;;;113.63;55.67;;;9.00;99.90;;;;;;6277329;22;20443;-85
2022/11/11 05:29:39;;;;;;;95.70;51.10;;;9.00;99.90;;;;;;6276172;22;20004;-85
2022/11/11 05:32:07;;;;;;;102.03;53.75;;;9.00;99.90;;;;;;6275979;22;19999;-86
2022/11/11 05:34:33;;;;;;;109.90;54.85;;;9.00;99.90;;;;;;6250743;22;19999;-85
2022/11/11 05:36:58;;;;;;;102.70;53.35;;;9.10;99.90;;;;;;6275797;22;20373;-85
2022/11/11 05:39:24;;;;;;;92.68;45.47;;;9.10;99.90;;;;;;6275984;22;19996;-86
2022/11/11 05:41:50;;;;;;;98.93;48.47;;;9.10;99.90;;;;;;6276044;22;20074;-85
2022/11/11 05:44:15;;;;;;;92.25;50.78;;;9.20;99.90;;;;;;6277711;22;19992;-86
2022/11/11 05:46:41;;;;;;;105.28;56.03;;;9.20;99.90;;;;;;6277421;22;20007;-85
2022/11/11 05:49:16;;;;;;;120.95;66.03;;;9.20;99.90;;;;;;6275797;22;20133;-87
2022/11/11 05:51:45;;;;;;;141.05;82.60;;;9.30;99.90;;;;;;6278114;22;20400;-86
2022/11/11 05:54:12;;;;;;;111.80;61.67;;;9.30;99.90;;;;;;6277354;22;20320;-86
2022/11/11 05:56:38;;;;;;;122.15;62.33;;;9.40;99.90;;;;;;6277284;22;20058;-86
2022/11/11 05:59:06;;;;;;;135.00;60.88;;;9.40;99.90;;;;;;6250175;22;19991;-85
2022/11/11 06:01:31;;;;;;;153.07;60.80;;;9.40;99.90;;;;;;6250442;22;20407;-84
2022/11/11 06:03:57;;;;;;;127.10;53.25;;;9.40;99.90;;;;;;6277012;22;20412;-85
2022/11/11 06:06:23;;;;;;;133.82;51.90;;;9.40;99.90;;;;;;6275661;22;20003;-85
2022/11/11 06:08:49;;;;;;;120.45;54.55;;;9.40;99.90;;;;;;6276074;22;19996;-84
2022/11/11 06:11:15;;;;;;;123.53;55.47;;;9.50;99.90;;;;;;6275745;22;20000;-84
2022/11/11 06:13:40;;;;;;;129.98;57.78;;;9.50;99.90;;;;;;6276901;22;19991;-85
2022/11/11 06:16:07;;;;;;;132.10;60.58;;;9.50;99.90;;;;;;6275408;22;19999;-85
2022/11/11 06:18:33;;;;;;;110.50;51.70;;;9.50;99.90;;;;;;6250213;22;20013;-86
2022/11/11 06:20:59;;;;;;;128.30;63.35;;;9.40;99.90;;;;;;6276998;22;19996;-86
2022/11/11 06:23:27;;;;;;;135.68;60.83;;;9.40;99.90;;;;;;6277283;22;20059;-86
2022/11/11 06:28:37;;;;;;;118.47;59.13;;;9.40;99.90;;;;;;6276546;22;20018;-86
2022/11/11 06:31:06;;;;;;;103.82;54.67;;;9.40;99.90;;;;;;6277249;22;20026;-85
2022/11/11 06:33:35;;;;;;;102.35;55.28;;;9.40;99.90;;;;;;6275749;22;20459;-85
2022/11/11 06:36:02;;;;;;;107.43;54.40;;;9.40;99.90;;;;;;6276803;22;20061;-85
2022/11/11 06:38:28;;;;;;;99.38;55.38;;;9.40;99.90;;;;;;6276873;22;20312;-85
2022/11/11 06:40:54;;;;;;;116.22;63.80;;;9.40;99.90;;;;;;6276796;22;20063;-84
2022/11/11 06:43:20;;;;;;;114.43;67.13;;;9.50;99.90;;;;;;6277069;22;20293;-85
2022/11/11 06:45:50;;;;;;;143.13;75.50;;;9.50;99.90;;;;;;6275748;22;19999;-85
2022/11/11 06:48:16;;;;;;;153.30;77.05;;;9.50;99.90;;;;;;6249680;22;20080;-85
2022/11/11 06:50:41;;;;;;;138.10;71.35;;;9.50;99.90;;;;;;6276942;22;20332;-85
2022/11/11 06:53:10;;;;;;;126.05;65.45;;;9.50;99.90;;;;;;6276914;22;19999;-84
2022/11/11 06:55:36;;;;;;;108.18;56.17;;;9.60;99.90;;;;;;6249688;22;19991;-84
2022/11/11 06:58:12;;;;;;;108.68;54.42;;;9.60;99.90;;;;;;6249755;22;20008;-84
2022/11/11 07:00:39;;;;;;;86.20;49.63;;;9.70;99.90;;;;;;6250325;22;20018;-85
2022/11/11 07:03:06;;;;;;;87.13;49.58;;;9.70;99.90;;;;;;6278741;22;19996;-85
2022/11/11 07:05:33;;;;;;;90.03;52.22;;;9.70;99.90;;;;;;6279415;22;20308;-85
2022/11/11 07:08:04;;;;;;;94.53;52.78;;;9.70;99.90;;;;;;6277759;22;19999;-85
2022/11/11 07:10:33;;;;;;;107.53;59.22;;;9.70;99.90;;;;;;6251829;22;20010;-85
2022/11/11 07:12:59;;;;;;;95.63;52.88;;;9.70;99.90;;;;;;6279217;22;19992;-86
2022/11/11 07:15:25;;;;;;;85.68;47.15;;;9.70;99.90;;;;;;6277764;22;19999;-87
2022/11/11 07:17:52;;;;;;;78.68;46.08;;;9.80;99.90;;;;;;6277322;22;20010;-86
2022/11/11 07:20:17;;;;;;;71.95;42.30;;;9.70;99.90;;;;;;6277642;22;19998;-87
2022/11/11 07:22:43;;;;;;;70.18;43.15;;;9.80;99.90;;;;;;6277785;22;20000;-86
2022/11/11 07:25:09;;;;;;;70.60;35.28;;;9.90;99.90;;;;;;6277466;22;19996;-87
2022/11/11 07:27:39;;;;;;;62.15;34.92;;;9.90;99.90;;;;;;6277628;22;20014;-86
2022/11/11 07:30:06;;;;;;;140.30;68.47;;;9.90;99.90;;;;;;6251859;22;19991;-87
2022/11/11 07:32:32;;;;;;;117.25;60.60;;;10.00;99.90;;;;;;6252109;22;19999;-86
2022/11/11 07:34:58;;;;;;;77.13;41.33;;;10.00;99.90;;;;;;6251997;22;20010;-85
2022/11/11 07:37:24;;;;;;;59.15;35.78;;;10.10;99.90;;;;;;6278152;22;20304;-86
2022/11/11 07:39:50;;;;;;;73.28;37.72;;;10.10;99.90;;;;;;6251696;22;20466;-86
2022/11/11 07:42:15;;;;;;;63.63;36.42;;;10.20;99.90;;;;;;6277144;22;20002;-86
2022/11/11 07:44:41;;;;;;;69.20;36.60;;;10.30;99.90;;;;;;6278590;22;20420;-86
2022/11/11 07:47:08;;;;;;;63.03;34.60;;;10.40;99.90;;;;;;6277211;22;20027;-86
2022/11/11 07:49:33;;;;;;;70.75;36.50;;;10.40;99.90;;;;;;6251353;22;19999;-86
2022/11/11 07:51:59;;;;;;;54.60;32.38;;;10.50;99.90;;;;;;6276669;22;20000;-87
2022/11/11 07:54:25;;;;;;;59.03;33.80;;;10.50;99.90;;;;;;6279198;22;20417;-87
2022/11/11 07:56:51;;;;;;;54.60;31.63;;;10.60;99.90;;;;;;6277150;22;20007;-86
2022/11/11 07:59:17;;;;;;;63.22;33.65;;;10.70;99.90;;;;;;6276729;22;20006;-84
2022/11/11 08:01:44;;;;;;;59.53;35.25;;;10.70;99.90;;;;;;6251810;22;20078;-85
2022/11/11 08:04:10;;;;;;;58.42;32.25;;;10.70;99.90;;;;;;6278420;22;19992;-85
2022/11/11 08:06:36;;;;;;;57.20;32.30;;;10.80;99.90;;;;;;6278291;22;20026;-86
2022/11/11 08:09:02;;;;;;;62.40;32.60;;;10.80;99.90;;;;;;6276767;22;19999;-85
2022/11/11 08:14:12;;;;;;;49.40;28.40;;;10.90;99.90;;;;;;6278211;22;20065;-86
2022/11/11 08:16:38;;;;;;;61.67;32.40;;;11.00;99.90;;;;;;6276495;22;20648;-86
2022/11/11 08:19:04;;;;;;;57.58;34.65;;;11.10;99.90;;;;;;6276699;22;20000;-85
2022/11/11 08:21:29;;;;;;;62.80;36.90;;;11.30;99.90;;;;;;6277011;22;19995;-85
2022/11/11 08:23:55;;;;;;;62.95;37.17;;;11.30;99.90;;;;;;6278287;22;19991;-86
2022/11/11 08:26:22;;;;;;;51.75;32.13;;;11.40;99.90;;;;;;6277921;22;20420;-86
2022/11/11 08:28:50;;;;;;;52.38;31.70;;;11.30;99.90;;;;;;6276212;22;20036;-84
2022/11/11 08:31:16;;;;;;;54.60;33.38;;;11.30;99.90;;;;;;6277721;22;20072;-88
2022/11/11 08:33:42;;;;;;;59.85;33.20;;;11.30;99.90;;;;;;6276809;22;20077;-86
2022/11/11 08:36:10;;;;;;;62.17;36.58;;;11.40;99.90;;;;;;6275578;22;20002;-86
2022/11/11 08:38:36;;;;;;;63.80;35.55;;;11.50;99.90;;;;;;6251142;22;20007;-84
2022/11/11 08:41:04;;;;;;;53.63;32.28;;;11.70;99.90;;;;;;6278313;22;20006;-85
2022/11/11 08:43:33;;;;;;;61.17;34.72;;;11.80;99.90;;;;;;6251425;22;19996;-87
2022/11/11 08:46:00;;;;;;;55.17;30.42;;;11.90;99.90;;;;;;6250730;22;20003;-86
2022/11/11 08:48:26;;;;;;;52.65;29.75;;;12.10;99.90;;;;;;6250930;22;20003;-88
2022/11/11 08:50:53;;;;;;;61.78;33.13;;;12.00;99.90;;;;;;6276804;22;20000;-85
2022/11/11 08:53:19;;;;;;;45.45;27.98;;;12.00;99.90;;;;;;6276976;22;20021;-87
2022/11/11 08:55:45;;;;;;;52.28;29.27;;;12.10;99.90;;;;;;6275766;22;20000;-87
2022/11/11 08:58:12;;;;;;;44.25;26.77;;;12.30;99.90;;;;;;6248638;22;20401;-85
2022/11/11 09:00:37;;;;;;;47.10;28.08;;;12.30;99.90;;;;;;6250919;22;20297;-87
2022/11/11 09:03:09;;;;;;;50.65;28.55;;;12.30;99.90;;;;;;6249205;22;19999;-85
2022/11/11 09:05:37;;;;;;;47.00;26.15;;;12.10;99.90;;;;;;6277679;22;19998;-85
2022/11/11 09:08:06;;;;;;;45.58;26.10;;;12.20;99.90;;;;;;6277347;22;20000;-84
2022/11/11 09:10:33;;;;;;;68.65;37.03;;;12.20;99.90;;;;;;6251038;22;19999;-85
2022/11/11 09:12:59;;;;;;;51.22;28.48;;;12.40;99.90;;;;;;6277960;22;19996;-85
2022/11/11 09:15:26;;;;;;;44.33;27.27;;;12.50;99.90;;;;;;6277347;22;19999;-85
2022/11/11 09:17:52;;;;;;;43.75;23.90;;;12.50;99.90;;;;;;6277733;22;20000;-86
2022/11/11 09:20:18;;;;;;;47.50;28.00;;;12.50;99.90;;;;;;6275783;22;20286;-85
2022/11/11 09:22:45;;;;;;;47.55;28.17;;;12.50;99.90;;;;;;6277721;22;19996;-86
2022/11/11 09:25:11;;;;;;;46.55;27.27;;;12.60;99.90;;;;;;6249556;22;19992;-88
2022/11/11 09:27:37;;;;;;;47.05;26.02;;;12.80;99.90;;;;;;6276032;22;20011;-85
2022/11/11 09:30:04;;;;;;;61.13;36.75;;;13.10;99.90;;;;;;6277854;22;20066;-88
2022/11/11 09:32:31;;;;;;;54.08;33.53;;;13.10;99.90;;;;;;6276612;22;19999;-85
2022/11/11 09:34:57;;;;;;;42.78;25.80;;;13.20;99.90;;;;;;6276259;22;20049;-84
2022/11/11 09:37:23;;;;;;;44.65;23.65;;;13.40;99.90;;;;;;6277489;22;20359;-86
2022/11/11 09:39:49;;;;;;;47.50;25.10;;;13.50;99.90;;;;;;6276212;22;19996;-84
2022/11/11 09:42:35;;;;;;;34.47;21.15;;;13.80;99.90;;;;;;6277008;22;20000;-86
2022/11/11 09:45:20;;;;;;;40.55;21.42;;;14.00;99.90;;;;;;6276267;22;20086;-84
2022/11/11 09:48:12;;;;;;;34.33;21.88;;;14.30;99.90;;;;;;6276497;22;20366;-86
2022/11/11 09:50:39;;;;;;;38.10;24.15;;;14.30;99.90;;;;;;6276518;22;19996;-84
2022/11/11 09:53:19;;;;;;;39.13;25.50;;;14.30;99.90;;;;;;6276353;22;20034;-84
2022/11/11 09:56:10;;;;;;;42.25;26.95;;;14.30;99.90;;;;;;6276515;22;19996;-85
2022/11/11 09:59:13;;;;;;;34.10;21.75;;;14.70;99.90;;;;;;6263934;22;20023;-83
2022/11/11 10:01:47;;;;;;;34.92;21.88;;;14.90;99.90;;;;;;6261529;22;20488;-84
2022/11/11 10:04:58;;;;;;;36.88;23.73;;;15.10;99.90;;;;;;6276748;22;20042;-84
2022/11/11 10:07:47;;;;;;;79.38;51.55;;;15.30;99.90;;;;;;6223223;22;20320;-80
2022/11/11 10:10:37;;;;;;;36.53;22.40;;;15.40;99.90;;;;;;6277073;22;19996;-82
2022/11/11 10:13:03;;;;;;;41.30;22.33;;;15.70;99.90;;;;;;6274731;22;20408;-85
2022/11/11 10:15:42;;;;;;;37.92;22.13;;;16.00;99.90;;;;;;6276646;22;19995;-82
2022/11/11 10:18:32;;;;;;;38.90;22.20;;;15.70;99.90;;;;;;6275646;22;20027;-85
2022/11/11 10:20:58;;;;;;;37.50;24.42;;;15.40;99.90;;;;;;6274509;22;20003;-83
2022/11/11 10:23:36;;;;;;;39.25;22.52;;;15.90;99.90;;;;;;6276389;22;20022;-83
2022/11/11 10:26:18;;;;;;;41.05;24.10;;;16.30;99.90;;;;;;6276174;22;20012;-83
2022/11/11 10:28:44;;;;;;;45.53;24.50;;;16.60;99.90;;;;;;6276287;22;20022;-82
2022/11/11 10:31:21;;;;;;;38.38;21.95;;;17.10;99.90;;;;;;6274273;22;20074;-83
2022/11/11 10:34:17;;;;;;;32.20;21.02;;;17.30;99.90;;;;;;6276275;22;19996;-80
2022/11/11 10:36:48;;;;;;;38.00;21.80;;;16.40;99.90;;;;;;6181662;23;20016;-82
2022/11/11 10:39:27;;;;;;;39.37;24.30;;;15.90;99.90;;;;;;6182068;23;20075;-82
2022/11/11 10:41:53;;;;;;;35.72;21.33;;;16.20;99.90;;;;;;6181601;23;20080;-84
2022/11/11 10:44:21;;;;;;;43.08;24.52;;;15.70;99.90;;;;;;6182044;23;20358;-84
2022/11/11 10:47:02;;;;;;;36.72;23.65;;;15.60;99.90;;;;;;6181819;23;20430;-84
2022/11/11 10:49:33;;;;;;;41.03;23.63;;;15.30;99.90;;;;;;6182059;23;20036;-86
2022/11/11 10:52:04;;;;;;;41.03;24.88;;;14.90;99.90;;;;;;6181784;23;20055;-85
2022/11/11 10:54:39;;;;;;;42.45;25.67;;;14.70;99.90;;;;;;6181791;23;20008;-85
2022/11/11 10:57:16;;;;;;;36.80;22.20;;;14.90;99.90;;;;;;6181093;23;20009;-85
2022/11/11 10:59:55;;;;;;;39.28;23.23;;;15.20;99.90;;;;;;6181693;23;20358;-85
2022/11/11 11:02:25;;;;;;;47.25;26.85;;;15.10;99.90;;;;;;6181587;23;20004;-83
2022/11/11 11:05:00;;;;;;;47.80;28.27;;;15.10;99.90;;;;;;6156121;23;20001;-83
2022/11/11 11:07:40;;;;;;;57.15;32.22;;;15.10;99.90;;;;;;6181573;23;20005;-83
2022/11/11 11:10:32;;;;;;;86.53;54.50;;;14.90;99.90;;;;;;6181517;23;20411;-84
2022/11/11 11:13:18;;;;;;;50.85;29.75;;;15.10;99.90;;;;;;6232345;22;20312;-85
2022/11/11 11:15:51;;;;;;;52.50;30.52;;;14.90;99.90;;;;;;6273808;22;19995;-85
2022/11/11 11:18:19;;;;;;;47.95;29.90;;;14.80;99.90;;;;;;6274197;22;20000;-85
2022/11/11 11:20:56;;;;;;;43.63;27.42;;;14.50;99.90;;;;;;6273980;22;20079;-84
2022/11/11 11:23:42;;;;;;;49.38;29.70;;;14.30;99.90;;;;;;6275048;22;19996;-85
2022/11/11 11:26:10;;;;;;;47.42;27.77;;;14.50;99.90;;;;;;6275214;22;20002;-85
2022/11/11 11:28:55;;;;;;;52.28;30.13;;;14.90;99.90;;;;;;6275380;22;20015;-84
2022/11/11 11:31:36;;;;;;;68.70;38.88;;;15.20;99.90;;;;;;6247996;22;19999;-85
2022/11/11 11:34:02;;;;;;;67.75;36.55;;;15.30;99.90;;;;;;6247833;22;20040;-84
2022/11/11 11:36:28;;;;;;;40.13;22.65;;;15.20;99.90;;;;;;6273765;22;20122;-87
2022/11/11 11:38:54;;;;;;;44.13;25.88;;;15.20;99.90;;;;;;6271709;22;19996;-88
2022/11/11 11:41:38;;;;;;;35.17;22.02;;;15.20;99.90;;;;;;6274255;22;19996;-87
2022/11/11 11:44:24;;;;;;;40.70;24.83;;;15.30;99.90;;;;;;6248992;22;20071;-85
2022/11/11 11:46:54;;;;;;;43.63;24.40;;;15.40;99.90;;;;;;6247871;22;20003;-85
2022/11/11 11:49:35;;;;;;;57.47;29.33;;;15.20;99.90;;;;;;6250303;22;19999;-86
2022/11/11 11:52:13;;;;;;;49.03;29.70;;;15.10;99.90;;;;;;6278080;22;20059;-86
2022/11/11 11:55:03;;;;;;;37.20;23.98;;;15.10;99.90;;;;;;6249939;22;20321;-86
2022/11/11 11:58:08;;;;;;;59.17;33.35;;;15.00;99.90;;;;;;6250345;22;20008;-87
2022/11/11 12:00:55;;;;;;;62.72;30.45;;;15.30;99.90;;;;;;6251335;22;20016;-86
2022/11/11 12:03:53;;;;;;;39.92;24.75;;;15.60;99.90;;;;;;6251738;22;20000;-80
2022/11/11 12:06:45;;;;;;;49.80;27.30;;;15.60;99.90;;;;;;6249931;22;19992;-82
2022/11/11 12:09:50;;;;;;;47.38;27.05;;;15.60;99.90;;;;;;6277758;22;19992;-83
2022/11/11 12:12:34;;;;;;;40.70;24.52;;;15.60;99.90;;;;;;6242480;22;20000;-82
2022/11/11 12:15:20;;;;;;;37.55;21.65;;;15.70;99.90;;;;;;6276471;22;19998;-85
2022/11/11 12:17:54;;;;;;;37.22;21.67;;;15.80;99.90;;;;;;6276945;22;19995;-83
2022/11/11 12:20:25;;;;;;;38.28;21.70;;;15.80;99.90;;;;;;6277153;22;20051;-83
2022/11/11 12:23:09;;;;;;;36.97;21.42;;;15.70;99.90;;;;;;6275369;22;20049;-79
2022/11/11 12:26:03;;;;;;;36.72;22.42;;;15.40;99.90;;;;;;6250307;22;20019;-84
2022/11/11 12:28:47;;;;;;;45.22;25.05;;;15.20;99.90;;;;;;6250080;22;20016;-82
2022/11/11 12:31:35;;;;;;;39.78;25.33;;;15.20;99.90;;;;;;6250185;22;20435;-84
2022/11/11 12:34:35;;;;;;;33.50;22.15;;;15.20;99.90;;;;;;6277423;22;19995;-83
2022/11/11 12:37:35;;;;;;;45.25;25.30;;;15.30;99.90;;;;;;6175756;23;20009;-84
2022/11/11 12:40:27;;;;;;;54.80;29.73;;;15.30;99.90;;;;;;6181142;23;20080;-86
2022/11/11 12:43:07;;;;;;;73.40;37.20;;;15.30;99.90;;;;;;6098869;23;20001;-85
2022/11/11 12:45:33;;;;;;;32.67;20.38;;;15.30;99.90;;;;;;6182829;23;20020;-83
2022/11/11 12:48:07;;;;;;;35.92;20.45;;;15.20;99.90;;;;;;6182850;23;20040;-84
2022/11/11 12:50:44;;;;;;;45.47;25.45;;;15.00;99.90;;;;;;6182903;23;19996;-84
2022/11/11 12:53:16;;;;;;;50.60;27.00;;;14.80;99.90;;;;;;6181591;23;20000;-83
2022/11/11 12:56:07;;;;;;;;;;;15.00;99.90;;;;;;6183729;23;20120;-85
2022/11/11 12:58:45;;;;;;;36.60;20.50;;;15.00;99.90;;;;;;6178509;23;19908;-84
2022/11/11 13:01:41;;;;;;;38.25;23.33;;;14.90;99.90;;;;;;6182802;23;20024;-83
2022/11/11 13:04:28;;;;;;;51.03;27.30;;;14.90;99.90;;;;;;6157585;23;20028;-85
2022/11/11 13:06:57;;;;;;;35.88;21.65;;;14.90;99.90;;;;;;6157504;23;20005;-84
2022/11/11 13:09:42;;;;;;;39.47;21.83;;;14.90;99.90;;;;;;6183023;23;20008;-83
2022/11/11 13:12:47;;;;;;;32.90;18.55;;;14.90;99.90;;;;;;6157914;23;20705;-86
2022/11/11 13:15:21;;;;;;;43.10;25.20;;;14.90;99.90;;;;;;6216314;22;20171;-85
2022/11/11 13:17:47;;;;;;;38.75;20.02;;;14.80;99.90;;;;;;6251108;22;20002;-84
2022/11/11 13:20:43;;;;;;;40.55;21.27;;;14.80;99.90;;;;;;6277498;22;20014;-86
2022/11/11 13:23:09;;;;;;;40.72;20.40;;;14.70;99.90;;;;;;6250195;22;19991;-85
2022/11/11 13:25:44;;;;;;;52.00;26.77;;;14.60;99.90;;;;;;6249922;22;19996;-86
2022/11/11 13:28:27;;;;;;;49.88;25.30;;;14.60;99.90;;;;;;6277091;22;20008;-84
2022/11/11 13:31:08;;;;;;;52.40;29.08;;;14.60;99.90;;;;;;6249907;22;20003;-84
2022/11/11 13:33:47;;;;;;;47.40;24.75;;;14.50;99.90;;;;;;6250539;22;20405;-83
2022/11/11 13:36:20;;;;;;;55.38;32.08;;;14.50;99.90;;;;;;6250140;22;20083;-84
2022/11/11 13:38:59;;;;;;;64.07;36.45;;;14.40;99.90;;;;;;6244882;23;20099;-85
2022/11/11 13:41:35;;;;;;;60.65;34.83;;;14.30;99.90;;;;;;6248476;22;19993;-85
2022/11/11 13:44:08;;;;;;;42.25;24.15;;;14.20;99.90;;;;;;6249983;22;20427;-85
2022/11/11 13:46:43;;;;;;;56.03;32.33;;;14.10;99.90;;;;;;6249784;22;20004;-87
2022/11/11 13:49:22;;;;;;;53.65;31.30;;;14.10;99.90;;;;;;6276843;22;20070;-84
2022/11/11 13:51:57;;;;;;;71.10;40.20;;;14.10;99.90;;;;;;6276922;22;19995;-83
2022/11/11 13:54:41;;;;;;;65.28;29.98;;;14.00;99.90;;;;;;6277326;22;20317;-84
2022/11/11 13:57:13;;;;;;;52.17;27.90;;;14.10;99.90;;;;;;6276927;22;20004;-86
2022/11/11 13:59:43;;;;;;;49.63;29.83;;;14.00;99.90;;;;;;6276797;22;20018;-84
2022/11/11 14:02:19;;;;;;;66.05;35.13;;;14.00;99.90;;;;;;6276969;22;20018;-84
2022/11/11 14:05:08;;;;;;;49.13;26.23;;;14.00;99.90;;;;;;6244580;23;20004;-83
2022/11/11 14:07:43;;;;;;;127.38;30.35;;;14.00;99.90;;;;;;6222395;23;20050;-81
2022/11/11 14:10:18;;;;;;;53.10;29.98;;;14.00;99.90;;;;;;6270679;22;19995;-83
2022/11/11 14:12:48;;;;;;;59.17;29.65;;;14.00;99.90;;;;;;6249548;22;20038;-85
2022/11/11 14:15:39;;;;;;;49.35;26.55;;;14.00;99.90;;;;;;6249577;22;20042;-81